sensor_id;sensor_type;location;lat;lon;timestamp;pressure;altitude;pressure_sealevel;temperature
19282;BMP180;9774;52.034;5.342;2022-10-16T00:01:20;100756.00;;;19.00
19282;BMP180;9774;52.034;5.342;2022-10-16T00:03:48;100767.00;;;19.00
19282;BMP180;9774;52.034;5.342;2022-10-16T00:06:19;100759.00;;;19.00
19282;BMP180;9774;52.034;5.342;2022-10-16T00:08:48;100760.00;;;19.00
19282;BMP180;9774;52.034;5.342;2022-10-16T00:11:17;100765.00;;;19.00
19282;BMP180;9774;52.034;5.342;2022-10-16T00:13:47;100762.00;;;18.90
19282;BMP180;9774;52.034;5.342;2022-10-16T00:16:17;100771.00;;;18.90
19282;BMP180;9774;52.034;5.342;2022-10-16T00:18:45;100758.00;;;18.90
19282;BMP180;9774;52.034;5.342;2022-10-16T00:21:14;100760.00;;;18.90
19282;BMP180;9774;52.034;5.342;2022-10-16T00:23:43;100769.00;;;18.90
19282;BMP180;9774;52.034;5.342;2022-10-16T00:26:12;100766.00;;;18.90
19282;BMP180;9774;52.034;5.342;2022-10-16T00:28:40;100763.00;;;18.90
19282;BMP180;9774;52.034;5.342;2022-10-16T00:31:09;100757.00;;;18.90
19282;BMP180;9774;52.034;5.342;2022-10-16T00:33:39;100758.00;;;18.90
19282;BMP180;9774;52.034;5.342;2022-10-16T00:36:09;100756.00;;;18.90
19282;BMP180;9774;52.034;5.342;2022-10-16T00:38:37;100762.00;;;18.90
19282;BMP180;9774;52.034;5.342;2022-10-16T00:41:07;100752.00;;;18.90
19282;BMP180;9774;52.034;5.342;2022-10-16T00:43:40;100758.00;;;18.90
19282;BMP180;9774;52.034;5.342;2022-10-16T00:46:15;100754.00;;;18.80
19282;BMP180;9774;52.034;5.342;2022-10-16T00:48:47;100767.00;;;18.90
19282;BMP180;9774;52.034;5.342;2022-10-16T00:51:16;100760.00;;;18.90
19282;BMP180;9774;52.034;5.342;2022-10-16T00:53:45;100759.00;;;18.90
19282;BMP180;9774;52.034;5.342;2022-10-16T00:56:14;100765.00;;;18.90
19282;BMP180;9774;52.034;5.342;2022-10-16T00:58:41;100767.00;;;18.90
19282;BMP180;9774;52.034;5.342;2022-10-16T01:01:08;100764.00;;;18.90
19282;BMP180;9774;52.034;5.342;2022-10-16T01:03:37;100766.00;;;18.90
19282;BMP180;9774;52.034;5.342;2022-10-16T01:06:21;100773.00;;;18.90
19282;BMP180;9774;52.034;5.342;2022-10-16T01:08:58;100767.00;;;18.90
19282;BMP180;9774;52.034;5.342;2022-10-16T01:11:34;100779.00;;;18.90
19282;BMP180;9774;52.034;5.342;2022-10-16T01:14:09;100774.00;;;18.90
19282;BMP180;9774;52.034;5.342;2022-10-16T01:16:43;100773.00;;;19.00
19282;BMP180;9774;52.034;5.342;2022-10-16T01:19:16;100768.00;;;19.00
19282;BMP180;9774;52.034;5.342;2022-10-16T01:21:48;100764.00;;;19.00
19282;BMP180;9774;52.034;5.342;2022-10-16T01:24:27;100766.00;;;19.00
19282;BMP180;9774;52.034;5.342;2022-10-16T01:27:14;100773.00;;;18.90
19282;BMP180;9774;52.034;5.342;2022-10-16T01:29:50;100774.00;;;19.00
19282;BMP180;9774;52.034;5.342;2022-10-16T01:32:23;100770.00;;;19.00
19282;BMP180;9774;52.034;5.342;2022-10-16T01:34:53;100775.00;;;19.00
19282;BMP180;9774;52.034;5.342;2022-10-16T01:37:32;100764.00;;;19.00
19282;BMP180;9774;52.034;5.342;2022-10-16T01:40:02;100764.00;;;19.10
19282;BMP180;9774;52.034;5.342;2022-10-16T01:42:36;100764.00;;;19.10
19282;BMP180;9774;52.034;5.342;2022-10-16T01:45:06;100759.00;;;19.10
19282;BMP180;9774;52.034;5.342;2022-10-16T01:47:36;100757.00;;;19.10
19282;BMP180;9774;52.034;5.342;2022-10-16T01:50:04;100747.00;;;19.10
19282;BMP180;9774;52.034;5.342;2022-10-16T01:52:34;100749.00;;;19.20
19282;BMP180;9774;52.034;5.342;2022-10-16T01:55:05;100751.00;;;19.20
19282;BMP180;9774;52.034;5.342;2022-10-16T01:57:36;100759.00;;;19.20
19282;BMP180;9774;52.034;5.342;2022-10-16T02:00:09;100755.00;;;19.20
19282;BMP180;9774;52.034;5.342;2022-10-16T02:02:39;100751.00;;;19.20
19282;BMP180;9774;52.034;5.342;2022-10-16T02:05:11;100758.00;;;19.20
19282;BMP180;9774;52.034;5.342;2022-10-16T02:07:42;100761.00;;;19.20
19282;BMP180;9774;52.034;5.342;2022-10-16T02:10:09;100767.00;;;19.20
19282;BMP180;9774;52.034;5.342;2022-10-16T02:12:41;100766.00;;;19.20
19282;BMP180;9774;52.034;5.342;2022-10-16T02:15:10;100770.00;;;19.30
19282;BMP180;9774;52.034;5.342;2022-10-16T02:17:38;100768.00;;;19.30
19282;BMP180;9774;52.034;5.342;2022-10-16T02:20:06;100765.00;;;19.30
19282;BMP180;9774;52.034;5.342;2022-10-16T02:22:38;100772.00;;;19.20
19282;BMP180;9774;52.034;5.342;2022-10-16T02:25:09;100778.00;;;19.30
19282;BMP180;9774;52.034;5.342;2022-10-16T02:27:43;100781.00;;;19.20
19282;BMP180;9774;52.034;5.342;2022-10-16T02:30:16;100771.00;;;19.30
19282;BMP180;9774;52.034;5.342;2022-10-16T02:32:47;100776.00;;;19.30
19282;BMP180;9774;52.034;5.342;2022-10-16T02:35:17;100778.00;;;19.30
19282;BMP180;9774;52.034;5.342;2022-10-16T02:37:46;100782.00;;;19.30
19282;BMP180;9774;52.034;5.342;2022-10-16T02:40:14;100779.00;;;19.30
19282;BMP180;9774;52.034;5.342;2022-10-16T02:42:43;100781.00;;;19.20
19282;BMP180;9774;52.034;5.342;2022-10-16T02:45:12;100775.00;;;19.20
19282;BMP180;9774;52.034;5.342;2022-10-16T02:47:39;100773.00;;;19.20
19282;BMP180;9774;52.034;5.342;2022-10-16T02:50:07;100778.00;;;19.30
19282;BMP180;9774;52.034;5.342;2022-10-16T02:52:34;100772.00;;;19.30
19282;BMP180;9774;52.034;5.342;2022-10-16T02:55:02;100778.00;;;19.30
19282;BMP180;9774;52.034;5.342;2022-10-16T02:57:29;100786.00;;;19.20
19282;BMP180;9774;52.034;5.342;2022-10-16T02:59:59;100788.00;;;19.20
19282;BMP180;9774;52.034;5.342;2022-10-16T03:02:26;100783.00;;;19.20
19282;BMP180;9774;52.034;5.342;2022-10-16T03:04:53;100776.00;;;19.20
19282;BMP180;9774;52.034;5.342;2022-10-16T03:07:21;100774.00;;;19.20
19282;BMP180;9774;52.034;5.342;2022-10-16T03:09:48;100774.00;;;19.20
19282;BMP180;9774;52.034;5.342;2022-10-16T03:12:15;100773.00;;;19.20
19282;BMP180;9774;52.034;5.342;2022-10-16T03:14:42;100779.00;;;19.20
19282;BMP180;9774;52.034;5.342;2022-10-16T03:17:11;100778.00;;;19.20
19282;BMP180;9774;52.034;5.342;2022-10-16T03:19:39;100783.00;;;19.20
19282;BMP180;9774;52.034;5.342;2022-10-16T03:22:06;100791.00;;;19.20
19282;BMP180;9774;52.034;5.342;2022-10-16T03:24:34;100787.00;;;19.20
19282;BMP180;9774;52.034;5.342;2022-10-16T03:27:01;100781.00;;;19.20
19282;BMP180;9774;52.034;5.342;2022-10-16T03:29:29;100784.00;;;19.20
19282;BMP180;9774;52.034;5.342;2022-10-16T03:31:56;100796.00;;;19.20
19282;BMP180;9774;52.034;5.342;2022-10-16T03:34:25;100792.00;;;19.20
19282;BMP180;9774;52.034;5.342;2022-10-16T03:36:52;100784.00;;;19.20
19282;BMP180;9774;52.034;5.342;2022-10-16T03:39:20;100794.00;;;19.20
19282;BMP180;9774;52.034;5.342;2022-10-16T03:41:47;100799.00;;;19.20
19282;BMP180;9774;52.034;5.342;2022-10-16T03:44:14;100796.00;;;19.20
19282;BMP180;9774;52.034;5.342;2022-10-16T03:46:41;100804.00;;;19.20
19282;BMP180;9774;52.034;5.342;2022-10-16T03:49:09;100807.00;;;19.20
19282;BMP180;9774;52.034;5.342;2022-10-16T03:51:37;100802.00;;;19.10
19282;BMP180;9774;52.034;5.342;2022-10-16T03:54:05;100800.00;;;19.20
19282;BMP180;9774;52.034;5.342;2022-10-16T03:56:32;100805.00;;;19.10
19282;BMP180;9774;52.034;5.342;2022-10-16T03:58:59;100818.00;;;19.10
19282;BMP180;9774;52.034;5.342;2022-10-16T04:01:26;100809.00;;;19.10
19282;BMP180;9774;52.034;5.342;2022-10-16T04:03:54;100815.00;;;19.10
19282;BMP180;9774;52.034;5.342;2022-10-16T04:06:21;100818.00;;;19.10
19282;BMP180;9774;52.034;5.342;2022-10-16T04:08:50;100820.00;;;19.00
19282;BMP180;9774;52.034;5.342;2022-10-16T04:11:17;100823.00;;;19.00
19282;BMP180;9774;52.034;5.342;2022-10-16T04:13:44;100830.00;;;19.00
19282;BMP180;9774;52.034;5.342;2022-10-16T04:16:11;100835.00;;;19.00
19282;BMP180;9774;52.034;5.342;2022-10-16T04:18:39;100836.00;;;19.00
19282;BMP180;9774;52.034;5.342;2022-10-16T04:21:07;100846.00;;;19.00
19282;BMP180;9774;52.034;5.342;2022-10-16T04:23:34;100849.00;;;19.00
19282;BMP180;9774;52.034;5.342;2022-10-16T04:26:03;100845.00;;;19.00
19282;BMP180;9774;52.034;5.342;2022-10-16T04:28:30;100844.00;;;19.00
19282;BMP180;9774;52.034;5.342;2022-10-16T04:30:57;100849.00;;;19.00
19282;BMP180;9774;52.034;5.342;2022-10-16T04:33:25;100856.00;;;18.90
19282;BMP180;9774;52.034;5.342;2022-10-16T04:36:03;100857.00;;;18.80
19282;BMP180;9774;52.034;5.342;2022-10-16T04:38:30;100862.00;;;18.90
19282;BMP180;9774;52.034;5.342;2022-10-16T04:40:58;100855.00;;;18.90
19282;BMP180;9774;52.034;5.342;2022-10-16T04:43:27;100856.00;;;18.90
19282;BMP180;9774;52.034;5.342;2022-10-16T04:45:54;100857.00;;;18.90
19282;BMP180;9774;52.034;5.342;2022-10-16T04:48:22;100861.00;;;18.90
19282;BMP180;9774;52.034;5.342;2022-10-16T04:50:50;100869.00;;;18.90
19282;BMP180;9774;52.034;5.342;2022-10-16T04:53:17;100881.00;;;18.80
19282;BMP180;9774;52.034;5.342;2022-10-16T04:55:45;100879.00;;;18.80
19282;BMP180;9774;52.034;5.342;2022-10-16T04:58:12;100882.00;;;18.80
19282;BMP180;9774;52.034;5.342;2022-10-16T05:00:41;100878.00;;;18.80
19282;BMP180;9774;52.034;5.342;2022-10-16T05:03:10;100878.00;;;18.80
19282;BMP180;9774;52.034;5.342;2022-10-16T05:05:41;100893.00;;;18.80
19282;BMP180;9774;52.034;5.342;2022-10-16T05:08:09;100893.00;;;18.80
19282;BMP180;9774;52.034;5.342;2022-10-16T05:10:36;100887.00;;;18.80
19282;BMP180;9774;52.034;5.342;2022-10-16T05:13:03;100901.00;;;18.80
19282;BMP180;9774;52.034;5.342;2022-10-16T05:15:31;100910.00;;;18.80
19282;BMP180;9774;52.034;5.342;2022-10-16T05:17:59;100906.00;;;18.80
19282;BMP180;9774;52.034;5.342;2022-10-16T05:20:26;100906.00;;;18.80
19282;BMP180;9774;52.034;5.342;2022-10-16T05:22:54;100919.00;;;18.80
19282;BMP180;9774;52.034;5.342;2022-10-16T05:25:21;100917.00;;;18.80
19282;BMP180;9774;52.034;5.342;2022-10-16T05:27:48;100928.00;;;18.70
19282;BMP180;9774;52.034;5.342;2022-10-16T05:30:17;100920.00;;;18.70
19282;BMP180;9774;52.034;5.342;2022-10-16T05:32:47;100921.00;;;18.70
19282;BMP180;9774;52.034;5.342;2022-10-16T05:35:16;100922.00;;;18.70
19282;BMP180;9774;52.034;5.342;2022-10-16T05:37:44;100932.00;;;18.70
19282;BMP180;9774;52.034;5.342;2022-10-16T05:40:12;100934.00;;;18.70
19282;BMP180;9774;52.034;5.342;2022-10-16T05:42:40;100935.00;;;18.70
19282;BMP180;9774;52.034;5.342;2022-10-16T05:45:10;100949.00;;;18.70
19282;BMP180;9774;52.034;5.342;2022-10-16T05:47:38;100950.00;;;18.70
19282;BMP180;9774;52.034;5.342;2022-10-16T05:50:05;100951.00;;;18.70
19282;BMP180;9774;52.034;5.342;2022-10-16T05:52:34;100953.00;;;18.70
19282;BMP180;9774;52.034;5.342;2022-10-16T05:55:02;100963.00;;;18.70
19282;BMP180;9774;52.034;5.342;2022-10-16T05:57:29;100963.00;;;18.70
19282;BMP180;9774;52.034;5.342;2022-10-16T05:59:57;100963.00;;;18.70
19282;BMP180;9774;52.034;5.342;2022-10-16T06:02:24;100961.00;;;18.70
19282;BMP180;9774;52.034;5.342;2022-10-16T06:04:52;100966.00;;;18.70
19282;BMP180;9774;52.034;5.342;2022-10-16T06:07:20;100968.00;;;18.70
19282;BMP180;9774;52.034;5.342;2022-10-16T06:09:50;100971.00;;;18.70
19282;BMP180;9774;52.034;5.342;2022-10-16T06:12:17;100976.00;;;18.70
19282;BMP180;9774;52.034;5.342;2022-10-16T06:14:45;100982.00;;;18.70
19282;BMP180;9774;52.034;5.342;2022-10-16T06:17:13;100985.00;;;18.70
19282;BMP180;9774;52.034;5.342;2022-10-16T06:19:40;100989.00;;;18.70
19282;BMP180;9774;52.034;5.342;2022-10-16T06:22:08;100995.00;;;18.70
19282;BMP180;9774;52.034;5.342;2022-10-16T06:24:35;101004.00;;;18.70
19282;BMP180;9774;52.034;5.342;2022-10-16T06:27:05;100999.00;;;18.70
19282;BMP180;9774;52.034;5.342;2022-10-16T06:29:32;100999.00;;;18.70
19282;BMP180;9774;52.034;5.342;2022-10-16T06:31:59;101006.00;;;18.70
19282;BMP180;9774;52.034;5.342;2022-10-16T06:34:27;101005.00;;;18.70
19282;BMP180;9774;52.034;5.342;2022-10-16T06:36:54;101017.00;;;18.80
19282;BMP180;9774;52.034;5.342;2022-10-16T06:39:21;101021.00;;;18.80
19282;BMP180;9774;52.034;5.342;2022-10-16T06:41:49;101023.00;;;18.80
19282;BMP180;9774;52.034;5.342;2022-10-16T06:44:17;101032.00;;;18.80
19282;BMP180;9774;52.034;5.342;2022-10-16T06:46:44;101035.00;;;18.80
19282;BMP180;9774;52.034;5.342;2022-10-16T06:49:12;101042.00;;;18.80
19282;BMP180;9774;52.034;5.342;2022-10-16T06:51:39;101042.00;;;18.80
19282;BMP180;9774;52.034;5.342;2022-10-16T06:54:07;101044.00;;;18.90
19282;BMP180;9774;52.034;5.342;2022-10-16T06:56:35;101049.00;;;18.90
19282;BMP180;9774;52.034;5.342;2022-10-16T06:59:02;101050.00;;;18.90
19282;BMP180;9774;52.034;5.342;2022-10-16T07:01:32;101054.00;;;18.90
19282;BMP180;9774;52.034;5.342;2022-10-16T07:04:00;101061.00;;;18.90
19282;BMP180;9774;52.034;5.342;2022-10-16T07:06:30;101069.00;;;18.90
19282;BMP180;9774;52.034;5.342;2022-10-16T07:08:57;101073.00;;;18.90
19282;BMP180;9774;52.034;5.342;2022-10-16T07:11:25;101083.00;;;18.90
19282;BMP180;9774;52.034;5.342;2022-10-16T07:13:52;101087.00;;;19.00
19282;BMP180;9774;52.034;5.342;2022-10-16T07:16:21;101087.00;;;19.00
19282;BMP180;9774;52.034;5.342;2022-10-16T07:18:50;101067.00;;;18.90
19282;BMP180;9774;52.034;5.342;2022-10-16T07:21:23;101065.00;;;19.00
19282;BMP180;9774;52.034;5.342;2022-10-16T07:23:51;101082.00;;;19.00
19282;BMP180;9774;52.034;5.342;2022-10-16T07:26:19;101083.00;;;19.00
19282;BMP180;9774;52.034;5.342;2022-10-16T07:28:46;101085.00;;;19.00
19282;BMP180;9774;52.034;5.342;2022-10-16T07:31:15;101085.00;;;19.00
19282;BMP180;9774;52.034;5.342;2022-10-16T07:33:44;101094.00;;;19.00
19282;BMP180;9774;52.034;5.342;2022-10-16T07:36:14;101093.00;;;19.00
19282;BMP180;9774;52.034;5.342;2022-10-16T07:38:42;101104.00;;;19.00
19282;BMP180;9774;52.034;5.342;2022-10-16T07:41:11;101116.00;;;19.10
19282;BMP180;9774;52.034;5.342;2022-10-16T07:43:40;101119.00;;;19.10
19282;BMP180;9774;52.034;5.342;2022-10-16T07:46:07;101122.00;;;19.10
19282;BMP180;9774;52.034;5.342;2022-10-16T07:48:35;101131.00;;;19.10
19282;BMP180;9774;52.034;5.342;2022-10-16T07:51:04;101138.00;;;19.10
19282;BMP180;9774;52.034;5.342;2022-10-16T07:53:33;101137.00;;;19.10
19282;BMP180;9774;52.034;5.342;2022-10-16T07:56:02;101150.00;;;19.20
19282;BMP180;9774;52.034;5.342;2022-10-16T07:58:30;101150.00;;;19.30
19282;BMP180;9774;52.034;5.342;2022-10-16T08:00:58;101149.00;;;19.30
19282;BMP180;9774;52.034;5.342;2022-10-16T08:03:26;101153.00;;;19.40
19282;BMP180;9774;52.034;5.342;2022-10-16T08:05:53;101146.00;;;19.40
19282;BMP180;9774;52.034;5.342;2022-10-16T08:08:20;101162.00;;;19.40
19282;BMP180;9774;52.034;5.342;2022-10-16T08:10:49;101154.00;;;19.50
19282;BMP180;9774;52.034;5.342;2022-10-16T08:13:16;101164.00;;;19.50
19282;BMP180;9774;52.034;5.342;2022-10-16T08:15:44;101167.00;;;19.60
19282;BMP180;9774;52.034;5.342;2022-10-16T08:18:13;101167.00;;;19.60
19282;BMP180;9774;52.034;5.342;2022-10-16T08:20:41;101182.00;;;19.70
19282;BMP180;9774;52.034;5.342;2022-10-16T08:23:09;101180.00;;;19.80
19282;BMP180;9774;52.034;5.342;2022-10-16T08:25:37;101180.00;;;19.80
19282;BMP180;9774;52.034;5.342;2022-10-16T08:28:07;101182.00;;;19.80
19282;BMP180;9774;52.034;5.342;2022-10-16T08:30:35;101185.00;;;19.90
19282;BMP180;9774;52.034;5.342;2022-10-16T08:33:03;101191.00;;;20.00
19282;BMP180;9774;52.034;5.342;2022-10-16T08:35:30;101199.00;;;20.00
19282;BMP180;9774;52.034;5.342;2022-10-16T08:37:57;101192.00;;;20.10
19282;BMP180;9774;52.034;5.342;2022-10-16T08:40:26;101198.00;;;20.10
19282;BMP180;9774;52.034;5.342;2022-10-16T08:45:52;101209.00;;;20.20
19282;BMP180;9774;52.034;5.342;2022-10-16T08:48:27;101212.00;;;20.20
19282;BMP180;9774;52.034;5.342;2022-10-16T08:50:56;101222.00;;;20.30
19282;BMP180;9774;52.034;5.342;2022-10-16T08:53:27;101224.00;;;20.30
19282;BMP180;9774;52.034;5.342;2022-10-16T08:55:56;101219.00;;;20.40
19282;BMP180;9774;52.034;5.342;2022-10-16T08:58:28;101230.00;;;20.40
19282;BMP180;9774;52.034;5.342;2022-10-16T09:01:00;101234.00;;;20.50
19282;BMP180;9774;52.034;5.342;2022-10-16T09:03:50;101230.00;;;20.50
19282;BMP180;9774;52.034;5.342;2022-10-16T09:06:26;101236.00;;;20.60
19282;BMP180;9774;52.034;5.342;2022-10-16T09:09:10;101242.00;;;20.60
19282;BMP180;9774;52.034;5.342;2022-10-16T09:11:47;101243.00;;;20.70
19282;BMP180;9774;52.034;5.342;2022-10-16T09:14:30;101246.00;;;20.80
19282;BMP180;9774;52.034;5.342;2022-10-16T09:17:24;101253.00;;;20.90
19282;BMP180;9774;52.034;5.342;2022-10-16T09:20:00;101252.00;;;21.00
19282;BMP180;9774;52.034;5.342;2022-10-16T09:22:28;101250.00;;;21.10
19282;BMP180;9774;52.034;5.342;2022-10-16T09:25:00;101258.00;;;21.10
19282;BMP180;9774;52.034;5.342;2022-10-16T09:27:31;101261.00;;;21.30
19282;BMP180;9774;52.034;5.342;2022-10-16T09:29:59;101252.00;;;21.40
19282;BMP180;9774;52.034;5.342;2022-10-16T09:32:28;101266.00;;;21.40
19282;BMP180;9774;52.034;5.342;2022-10-16T09:34:57;101268.00;;;21.60
19282;BMP180;9774;52.034;5.342;2022-10-16T09:37:25;101271.00;;;21.70
19282;BMP180;9774;52.034;5.342;2022-10-16T09:39:53;101273.00;;;21.70
19282;BMP180;9774;52.034;5.342;2022-10-16T09:42:23;101273.00;;;21.80
19282;BMP180;9774;52.034;5.342;2022-10-16T09:44:52;101273.00;;;22.00
19282;BMP180;9774;52.034;5.342;2022-10-16T09:47:23;101272.00;;;22.10
19282;BMP180;9774;52.034;5.342;2022-10-16T09:49:53;101270.00;;;22.20
19282;BMP180;9774;52.034;5.342;2022-10-16T09:52:21;101275.00;;;22.20
19282;BMP180;9774;52.034;5.342;2022-10-16T09:54:50;101272.00;;;22.30
19282;BMP180;9774;52.034;5.342;2022-10-16T09:57:18;101278.00;;;22.40
19282;BMP180;9774;52.034;5.342;2022-10-16T09:59:47;101283.00;;;22.50
19282;BMP180;9774;52.034;5.342;2022-10-16T10:02:16;101277.00;;;22.60
19282;BMP180;9774;52.034;5.342;2022-10-16T10:04:48;101296.00;;;22.70
19282;BMP180;9774;52.034;5.342;2022-10-16T10:07:24;101288.00;;;22.60
19282;BMP180;9774;52.034;5.342;2022-10-16T10:09:52;101297.00;;;22.70
19282;BMP180;9774;52.034;5.342;2022-10-16T10:12:21;101300.00;;;22.70
19282;BMP180;9774;52.034;5.342;2022-10-16T10:14:51;101302.00;;;22.80
19282;BMP180;9774;52.034;5.342;2022-10-16T10:17:20;101302.00;;;22.80
19282;BMP180;9774;52.034;5.342;2022-10-16T10:19:52;101302.00;;;22.90
19282;BMP180;9774;52.034;5.342;2022-10-16T10:22:31;101303.00;;;22.90
19282;BMP180;9774;52.034;5.342;2022-10-16T10:25:25;101312.00;;;22.90
19282;BMP180;9774;52.034;5.342;2022-10-16T10:28:08;101305.00;;;23.00
19282;BMP180;9774;52.034;5.342;2022-10-16T10:30:42;101316.00;;;23.10
19282;BMP180;9774;52.034;5.342;2022-10-16T10:33:19;101324.00;;;23.20
19282;BMP180;9774;52.034;5.342;2022-10-16T10:35:53;101315.00;;;23.20
19282;BMP180;9774;52.034;5.342;2022-10-16T10:38:35;101320.00;;;23.30
19282;BMP180;9774;52.034;5.342;2022-10-16T10:41:20;101325.00;;;23.30
19282;BMP180;9774;52.034;5.342;2022-10-16T10:44:01;101331.00;;;23.40
19282;BMP180;9774;52.034;5.342;2022-10-16T10:46:34;101331.00;;;23.50
19282;BMP180;9774;52.034;5.342;2022-10-16T10:49:19;101334.00;;;23.40
19282;BMP180;9774;52.034;5.342;2022-10-16T10:51:58;101335.00;;;23.60
19282;BMP180;9774;52.034;5.342;2022-10-16T10:54:34;101330.00;;;23.60
19282;BMP180;9774;52.034;5.342;2022-10-16T10:57:12;101338.00;;;23.70
19282;BMP180;9774;52.034;5.342;2022-10-16T11:00:03;101335.00;;;23.70
19282;BMP180;9774;52.034;5.342;2022-10-16T11:02:37;101345.00;;;23.80
19282;BMP180;9774;52.034;5.342;2022-10-16T11:05:28;101341.00;;;23.80
19282;BMP180;9774;52.034;5.342;2022-10-16T11:08:00;101346.00;;;23.90
19282;BMP180;9774;52.034;5.342;2022-10-16T11:10:33;101351.00;;;23.80
19282;BMP180;9774;52.034;5.342;2022-10-16T11:13:08;101355.00;;;23.80
19282;BMP180;9774;52.034;5.342;2022-10-16T11:15:40;101360.00;;;23.80
19282;BMP180;9774;52.034;5.342;2022-10-16T11:18:11;101352.00;;;23.80
19282;BMP180;9774;52.034;5.342;2022-10-16T11:20:42;101358.00;;;23.90
19282;BMP180;9774;52.034;5.342;2022-10-16T11:23:18;101360.00;;;23.90
19282;BMP180;9774;52.034;5.342;2022-10-16T11:25:49;101364.00;;;23.90
19282;BMP180;9774;52.034;5.342;2022-10-16T11:28:22;101379.00;;;23.90
19282;BMP180;9774;52.034;5.342;2022-10-16T11:30:53;101374.00;;;24.00
19282;BMP180;9774;52.034;5.342;2022-10-16T11:33:29;101375.00;;;24.00
19282;BMP180;9774;52.034;5.342;2022-10-16T11:36:03;101365.00;;;24.10
19282;BMP180;9774;52.034;5.342;2022-10-16T11:38:34;101372.00;;;24.10
19282;BMP180;9774;52.034;5.342;2022-10-16T11:41:16;101372.00;;;24.10
19282;BMP180;9774;52.034;5.342;2022-10-16T11:43:52;101366.00;;;24.20
19282;BMP180;9774;52.034;5.342;2022-10-16T11:46:22;101375.00;;;24.20
19282;BMP180;9774;52.034;5.342;2022-10-16T11:48:56;101381.00;;;24.20
19282;BMP180;9774;52.034;5.342;2022-10-16T11:51:33;101383.00;;;24.20
19282;BMP180;9774;52.034;5.342;2022-10-16T11:54:07;101381.00;;;24.30
19282;BMP180;9774;52.034;5.342;2022-10-16T11:56:40;101390.00;;;24.30
19282;BMP180;9774;52.034;5.342;2022-10-16T11:59:13;101394.00;;;24.40
19282;BMP180;9774;52.034;5.342;2022-10-16T12:01:46;101392.00;;;24.40
19282;BMP180;9774;52.034;5.342;2022-10-16T12:04:19;101400.00;;;24.40
19282;BMP180;9774;52.034;5.342;2022-10-16T12:06:51;101389.00;;;24.50
19282;BMP180;9774;52.034;5.342;2022-10-16T12:09:22;101408.00;;;24.50
19282;BMP180;9774;52.034;5.342;2022-10-16T12:11:53;101405.00;;;24.50
19282;BMP180;9774;52.034;5.342;2022-10-16T12:14:37;101407.00;;;24.40
19282;BMP180;9774;52.034;5.342;2022-10-16T12:17:25;101410.00;;;24.30
19282;BMP180;9774;52.034;5.342;2022-10-16T12:20:00;101406.00;;;24.40
19282;BMP180;9774;52.034;5.342;2022-10-16T12:22:29;101411.00;;;24.40
19282;BMP180;9774;52.034;5.342;2022-10-16T12:24:57;101413.00;;;24.40
19282;BMP180;9774;52.034;5.342;2022-10-16T12:27:29;101408.00;;;24.40
19282;BMP180;9774;52.034;5.342;2022-10-16T12:29:58;101409.00;;;24.50
19282;BMP180;9774;52.034;5.342;2022-10-16T12:32:30;101413.00;;;24.50
19282;BMP180;9774;52.034;5.342;2022-10-16T12:34:59;101415.00;;;24.60
19282;BMP180;9774;52.034;5.342;2022-10-16T12:37:29;101419.00;;;24.60
19282;BMP180;9774;52.034;5.342;2022-10-16T12:39:58;101412.00;;;24.60
19282;BMP180;9774;52.034;5.342;2022-10-16T12:42:34;101409.00;;;24.60
19282;BMP180;9774;52.034;5.342;2022-10-16T12:45:12;101417.00;;;24.80
19282;BMP180;9774;52.034;5.342;2022-10-16T12:47:49;101411.00;;;24.80
19282;BMP180;9774;52.034;5.342;2022-10-16T12:50:28;101414.00;;;24.80
19282;BMP180;9774;52.034;5.342;2022-10-16T12:52:58;101414.00;;;25.00
19282;BMP180;9774;52.034;5.342;2022-10-16T12:55:27;101414.00;;;25.20
19282;BMP180;9774;52.034;5.342;2022-10-16T12:58:16;101425.00;;;25.30
19282;BMP180;9774;52.034;5.342;2022-10-16T13:00:54;101418.00;;;25.70
19282;BMP180;9774;52.034;5.342;2022-10-16T13:03:48;101425.00;;;26.10
19282;BMP180;9774;52.034;5.342;2022-10-16T13:06:24;101425.00;;;26.60
19282;BMP180;9774;52.034;5.342;2022-10-16T13:09:28;101421.00;;;27.10
19282;BMP180;9774;52.034;5.342;2022-10-16T13:12:09;101423.00;;;27.80
19282;BMP180;9774;52.034;5.342;2022-10-16T13:15:14;101425.00;;;28.20
19282;BMP180;9774;52.034;5.342;2022-10-16T13:17:52;101429.00;;;28.70
19282;BMP180;9774;52.034;5.342;2022-10-16T13:20:31;101438.00;;;29.00
19282;BMP180;9774;52.034;5.342;2022-10-16T13:23:08;101435.00;;;29.30
19282;BMP180;9774;52.034;5.342;2022-10-16T13:25:45;101429.00;;;29.50
19282;BMP180;9774;52.034;5.342;2022-10-16T13:28:15;101436.00;;;29.70
19282;BMP180;9774;52.034;5.342;2022-10-16T13:30:52;101446.00;;;29.70
19282;BMP180;9774;52.034;5.342;2022-10-16T13:33:24;101450.00;;;29.70
19282;BMP180;9774;52.034;5.342;2022-10-16T13:35:54;101459.00;;;29.60
19282;BMP180;9774;52.034;5.342;2022-10-16T13:38:23;101463.00;;;29.50
19282;BMP180;9774;52.034;5.342;2022-10-16T13:40:53;101470.00;;;29.40
19282;BMP180;9774;52.034;5.342;2022-10-16T13:43:24;101467.00;;;29.30
19282;BMP180;9774;52.034;5.342;2022-10-16T13:45:59;101473.00;;;29.00
19282;BMP180;9774;52.034;5.342;2022-10-16T13:48:28;101467.00;;;28.90
19282;BMP180;9774;52.034;5.342;2022-10-16T13:51:04;101455.00;;;28.70
19282;BMP180;9774;52.034;5.342;2022-10-16T13:53:33;101452.00;;;28.50
19282;BMP180;9774;52.034;5.342;2022-10-16T13:56:03;101449.00;;;28.30
19282;BMP180;9774;52.034;5.342;2022-10-16T13:58:31;101458.00;;;28.10
19282;BMP180;9774;52.034;5.342;2022-10-16T14:01:01;101457.00;;;27.90
19282;BMP180;9774;52.034;5.342;2022-10-16T14:03:30;101463.00;;;27.70
19282;BMP180;9774;52.034;5.342;2022-10-16T14:06:02;101468.00;;;27.50
19282;BMP180;9774;52.034;5.342;2022-10-16T14:08:30;101460.00;;;27.40
19282;BMP180;9774;52.034;5.342;2022-10-16T14:10:59;101475.00;;;27.20
19282;BMP180;9774;52.034;5.342;2022-10-16T14:13:31;101469.00;;;27.00
19282;BMP180;9774;52.034;5.342;2022-10-16T14:16:05;101461.00;;;26.80
19282;BMP180;9774;52.034;5.342;2022-10-16T14:18:34;101467.00;;;26.70
19282;BMP180;9774;52.034;5.342;2022-10-16T14:21:06;101466.00;;;26.50
19282;BMP180;9774;52.034;5.342;2022-10-16T14:23:36;101459.00;;;26.30
19282;BMP180;9774;52.034;5.342;2022-10-16T14:26:14;101453.00;;;26.10
19282;BMP180;9774;52.034;5.342;2022-10-16T14:28:43;101460.00;;;26.10
19282;BMP180;9774;52.034;5.342;2022-10-16T14:31:30;101454.00;;;25.80
19282;BMP180;9774;52.034;5.342;2022-10-16T14:33:58;101448.00;;;25.80